createdAt,value
2019-05-22T00:00:58.145Z,82.44
2019-05-22T00:04:12.306Z,82.49
2019-05-22T00:07:15.967Z,82.83
2019-05-22T00:10:26.149Z,81.89
2019-05-22T00:13:30.971Z,81.90
2019-05-22T00:16:35.395Z,81.26
2019-05-22T00:19:40.657Z,81.93
2019-05-22T00:22:48.320Z,82.27
2019-05-22T00:25:53.565Z,82.43
2019-05-22T00:28:57.488Z,82.22
2019-05-22T00:32:01.133Z,81.74
2019-05-22T00:35:06.454Z,82.16
2019-05-22T00:38:12.131Z,83.16
2019-05-22T00:41:18.028Z,84.48
2019-05-22T00:44:22.334Z,85.80
2019-05-22T00:47:25.839Z,86.80
2019-05-22T00:50:33.581Z,86.94
2019-05-22T00:53:43.253Z,87.20
2019-05-22T00:56:52.100Z,86.54
2019-05-22T00:59:57.666Z,86.41
2019-05-22T01:03:02.550Z,86.21
2019-05-22T01:06:08.999Z,86.08
2019-05-22T01:09:31.728Z,85.72
2019-05-22T01:12:36.253Z,85.17
2019-05-22T01:15:40.727Z,84.62
2019-05-22T01:18:45.379Z,84.67
2019-05-22T01:21:50.704Z,84.25
2019-05-22T01:24:54.903Z,84.53
2019-05-22T01:27:58.448Z,84.43
2019-05-22T01:31:09.392Z,84.67
2019-05-22T01:34:13.621Z,85.12
2019-05-22T01:37:19.418Z,84.89
2019-05-22T01:40:39.600Z,85.30
2019-05-22T01:43:43.790Z,86.67
2019-05-22T01:46:48.814Z,87.37
2019-05-22T01:49:54.172Z,88.33
2019-05-22T01:52:58.155Z,88.52
2019-05-22T01:56:04.029Z,88.50
2019-05-22T01:59:09.606Z,88.01
2019-05-22T02:02:14.455Z,87.14
2019-05-22T02:05:18.370Z,86.52
2019-05-22T02:08:23.031Z,86.61
2019-05-22T02:11:28.419Z,86.39
2019-05-22T02:14:32.536Z,86.08
2019-05-22T02:17:37.362Z,85.96
2019-05-22T02:20:42.053Z,85.45
2019-05-22T02:23:47.533Z,85.52
2019-05-22T02:26:51.297Z,85.31
2019-05-22T02:29:55.664Z,85.27
2019-05-22T02:32:59.297Z,85.68
2019-05-22T02:36:03.713Z,85.70
2019-05-22T02:39:11.951Z,85.94
2019-05-22T02:42:30.920Z,85.98
2019-05-22T02:45:34.944Z,85.82
2019-05-22T02:48:42.330Z,86.02
2019-05-22T02:51:44.487Z,85.43
2019-05-22T02:54:48.800Z,86.29
2019-05-22T02:57:52.345Z,86.68
2019-05-22T03:01:02.758Z,86.95
2019-05-22T03:04:08.530Z,87.34
2019-05-22T03:07:12.066Z,87.01
2019-05-22T03:10:19.404Z,87.22
2019-05-22T03:13:26.476Z,87.41
2019-05-22T03:16:50.031Z,87.41
2019-05-22T03:19:54.213Z,87.62
2019-05-22T03:23:09.847Z,89.50
2019-05-22T03:26:15.423Z,90.26
2019-05-22T03:29:22.097Z,89.37
2019-05-22T03:32:26.229Z,89.48
2019-05-22T03:35:33.404Z,89.98
2019-05-22T03:38:38.816Z,90.77
2019-05-22T03:41:42.846Z,90.16
2019-05-22T03:44:47.423Z,89.49
2019-05-22T03:47:53.100Z,90.02
2019-05-22T03:51:08.749Z,89.95
2019-05-22T03:54:12.950Z,89.17
2019-05-22T03:57:16.556Z,89.24
2019-05-22T04:00:21.477Z,88.98
2019-05-22T04:03:26.698Z,88.87
2019-05-22T04:06:30.354Z,89.19
2019-05-22T04:09:34.686Z,89.20
2019-05-22T04:12:40.182Z,89.19
2019-05-22T04:15:45.352Z,88.37
2019-05-22T04:18:50.074Z,87.90
2019-05-22T04:21:54.266Z,88.35
2019-05-22T04:24:58.484Z,87.22
2019-05-22T04:28:02.374Z,87.46
2019-05-22T04:31:07.392Z,86.75
2019-05-22T04:34:11.487Z,87.22
2019-05-22T04:37:16.191Z,86.41
2019-05-22T04:40:26.046Z,85.60
2019-05-22T04:43:30.996Z,85.44
2019-05-22T04:46:34.595Z,84.67
2019-05-22T04:49:38.697Z,84.53
2019-05-22T04:52:42.287Z,83.86
2019-05-22T04:55:46.050Z,84.01
2019-05-22T04:58:49.703Z,83.57
2019-05-22T05:01:53.877Z,83.83
2019-05-22T05:04:59.268Z,83.14
2019-05-22T05:08:04.341Z,83.21
2019-05-22T05:11:08.313Z,82.40
2019-05-22T05:14:12.024Z,82.35
2019-05-22T05:17:15.966Z,82.12
2019-05-22T05:20:22.415Z,82.56
2019-05-22T05:23:25.566Z,82.88
2019-05-22T05:26:31.612Z,81.68
2019-05-22T05:29:35.279Z,81.66
2019-05-22T05:32:40.745Z,81.70
2019-05-22T05:35:45.310Z,82.44
2019-05-22T05:38:48.961Z,82.45
2019-05-22T05:41:52.764Z,82.48
2019-05-22T05:44:56.386Z,82.67
2019-05-22T05:48:03.381Z,82.23
2019-05-22T05:51:11.331Z,81.95
2019-05-22T05:54:15.866Z,82.72
2019-05-22T05:57:41.043Z,82.63
2019-05-22T06:00:47.344Z,82.41
2019-05-22T06:03:55.839Z,82.34
2019-05-22T06:07:19.248Z,81.92
2019-05-22T06:10:29.489Z,82.42
2019-05-22T06:13:34.036Z,82.32
2019-05-22T06:16:54.405Z,81.96
2019-05-22T06:20:04.135Z,82.22
2019-05-22T06:23:27.378Z,82.29
2019-05-22T06:26:39.679Z,82.09
2019-05-22T06:30:05.145Z,80.68
2019-05-22T06:33:13.347Z,81.12
2019-05-22T06:36:17.674Z,80.98
2019-05-22T06:39:21.817Z,80.87
2019-05-22T06:42:25.594Z,80.54
2019-05-22T06:45:29.669Z,80.46
2019-05-22T06:48:33.529Z,80.65
2019-05-22T06:51:37.093Z,80.69
2019-05-22T06:54:40.959Z,83.08
2019-05-22T06:57:44.788Z,84.06
2019-05-22T07:00:48.380Z,84.56
2019-05-22T07:03:52.077Z,83.96
2019-05-22T07:06:56.318Z,84.00
2019-05-22T07:10:00.260Z,82.40
2019-05-22T07:13:05.056Z,82.36
2019-05-22T07:16:08.663Z,82.08
2019-05-22T07:19:12.846Z,80.97
2019-05-22T07:22:16.452Z,81.27
2019-05-22T07:25:21.348Z,80.29
2019-05-22T07:28:26.070Z,80.77
2019-05-22T07:31:29.722Z,78.99
2019-05-22T07:34:33.776Z,78.80
2019-05-22T07:37:45.558Z,78.60
2019-05-22T07:40:51.547Z,77.76
2019-05-22T07:43:55.433Z,77.76
2019-05-22T07:46:59.840Z,78.15
2019-05-22T07:50:05.051Z,78.24
2019-05-22T07:53:08.849Z,77.43
2019-05-22T07:56:14.070Z,77.37
2019-05-22T07:59:17.892Z,76.74
2019-05-22T08:02:24.743Z,77.07
2019-05-22T08:05:30.337Z,77.12
2019-05-22T08:08:37.115Z,76.12
2019-05-22T08:11:41.563Z,75.73
2019-05-22T08:14:46.040Z,75.42
2019-05-22T08:17:49.676Z,75.60
2019-05-22T08:20:53.421Z,75.55
2019-05-22T08:23:57.370Z,75.41
2019-05-22T08:27:01.369Z,76.00
2019-05-22T08:30:07.841Z,76.46
2019-05-22T08:33:15.268Z,75.70
2019-05-22T08:36:18.842Z,76.10
2019-05-22T08:39:23.120Z,76.95
2019-05-22T08:42:27.718Z,76.64
2019-05-22T08:45:32.889Z,76.92
2019-05-22T08:48:39.012Z,77.62
2019-05-22T08:51:42.576Z,77.78
2019-05-22T08:54:48.234Z,77.47
2019-05-22T08:57:52.501Z,77.07
2019-05-22T09:00:56.688Z,77.21
2019-05-22T09:04:00.362Z,76.77
2019-05-22T09:07:05.638Z,76.35
2019-05-22T09:10:09.880Z,77.31
2019-05-22T09:13:13.479Z,75.95
2019-05-22T09:16:18.180Z,75.51
2019-05-22T09:19:22.108Z,75.42
2019-05-22T09:22:39.612Z,76.04
2019-05-22T09:25:32.915Z,75.76
2019-05-22T09:28:38.216Z,74.66
2019-05-22T09:31:41.999Z,74.59
2019-05-22T09:34:45.716Z,75.03
2019-05-22T09:37:49.342Z,74.24
2019-05-22T09:40:53.500Z,74.22
2019-05-22T09:43:57.140Z,73.27
2019-05-22T09:47:00.849Z,72.32
2019-05-22T09:50:07.245Z,72.70
2019-05-22T09:53:11.466Z,72.45
2019-05-22T09:56:15.376Z,72.57
2019-05-22T09:59:19.740Z,72.32
2019-05-22T10:02:23.928Z,71.31
2019-05-22T10:05:27.647Z,71.05
2019-05-22T10:08:31.350Z,71.25
2019-05-22T10:11:35.565Z,71.59
2019-05-22T10:14:39.665Z,71.88
2019-05-22T10:17:49.287Z,71.47
2019-05-22T10:20:53.605Z,71.53
2019-05-22T10:23:57.696Z,72.53
2019-05-22T10:27:02.080Z,72.46
2019-05-22T10:30:09.795Z,72.89
2019-05-22T10:33:13.496Z,72.67
2019-05-22T10:36:17.519Z,72.67
2019-05-22T10:39:24.626Z,71.96
2019-05-22T10:42:27.667Z,71.21
2019-05-22T10:45:31.267Z,71.66
2019-05-22T10:48:34.912Z,72.82
2019-05-22T10:51:39.119Z,73.36
2019-05-22T10:54:42.733Z,74.17
2019-05-22T10:57:46.632Z,74.61
2019-05-22T11:00:50.369Z,73.81
2019-05-22T11:03:54.774Z,73.42
2019-05-22T11:06:58.616Z,72.93
2019-05-22T11:10:02.932Z,72.50
2019-05-22T11:13:06.682Z,71.87
2019-05-22T11:16:11.531Z,71.93
2019-05-22T11:19:15.740Z,72.13
2019-05-22T11:22:19.411Z,72.80
2019-05-22T11:25:23.438Z,72.94
2019-05-22T11:28:27.956Z,73.12
2019-05-22T11:31:31.609Z,73.85
2019-05-22T11:34:35.253Z,74.06
2019-05-22T11:37:39.938Z,74.58
2019-05-22T11:40:43.950Z,74.10
2019-05-22T11:43:47.756Z,73.22
2019-05-22T11:46:51.741Z,73.27
2019-05-22T11:49:55.411Z,74.54
2019-05-22T11:52:59.225Z,74.38
2019-05-22T11:56:03.177Z,74.60
2019-05-22T11:59:07.861Z,73.83
2019-05-22T12:02:13.283Z,74.75
2019-05-22T12:05:17.297Z,74.03
2019-05-22T12:08:21.316Z,74.40
2019-05-22T12:11:25.689Z,74.41
2019-05-22T12:14:29.329Z,72.15
2019-05-22T12:17:38.102Z,72.50
2019-05-22T12:20:39.645Z,73.00
2019-05-22T12:23:43.692Z,72.36
2019-05-22T12:26:47.372Z,73.22
2019-05-22T12:29:51.735Z,73.28
2019-05-22T12:32:56.291Z,73.09
2019-05-22T12:36:01.167Z,73.17
2019-05-22T12:39:08.276Z,73.03
2019-05-22T12:42:13.601Z,73.84
2019-05-22T12:45:19.662Z,75.11
2019-05-22T12:48:23.306Z,75.04
2019-05-22T12:51:27.872Z,74.73
2019-05-22T12:54:45.927Z,73.78
2019-05-22T12:57:37.576Z,73.72
2019-05-22T13:00:41.731Z,73.91
2019-05-22T13:03:46.952Z,74.02
2019-05-22T13:06:50.811Z,73.32
2019-05-22T13:09:54.569Z,74.07
2019-05-22T13:12:58.663Z,72.64
2019-05-22T13:16:02.724Z,72.72
2019-05-22T13:19:06.523Z,71.90
2019-05-22T13:22:14.788Z,72.99
2019-05-22T13:25:20.309Z,74.30
2019-05-22T13:28:25.525Z,75.27
2019-05-22T13:31:29.511Z,74.80
2019-05-22T13:34:33.198Z,75.50
2019-05-22T13:37:36.754Z,74.21
2019-05-22T13:40:40.613Z,74.89
2019-05-22T13:43:44.575Z,75.10
2019-05-22T13:46:48.380Z,75.06
2019-05-22T13:49:52.283Z,74.76
2019-05-22T13:52:56.420Z,74.60
2019-05-22T13:56:01.194Z,74.49
2019-05-22T13:59:05.793Z,73.42
2019-05-22T14:02:09.519Z,73.36
2019-05-22T14:05:13.957Z,75.00
2019-05-22T14:08:18.356Z,73.60
2019-05-22T14:11:22.713Z,73.48
2019-05-22T14:14:26.499Z,74.82
2019-05-22T14:17:31.347Z,74.53
2019-05-22T14:20:35.088Z,73.52
2019-05-22T14:23:39.399Z,74.70
2019-05-22T14:26:43.035Z,74.04
2019-05-22T14:29:46.706Z,74.50
2019-05-22T14:32:50.254Z,73.43
2019-05-22T14:35:55.812Z,73.19
2019-05-22T14:38:59.804Z,72.14
2019-05-22T14:42:03.934Z,71.83
2019-05-22T14:45:13.922Z,72.22
2019-05-22T14:48:17.828Z,71.37
2019-05-22T14:51:23.473Z,71.69
2019-05-22T14:54:27.242Z,71.31
2019-05-22T14:57:31.668Z,71.27
2019-05-22T15:00:36.635Z,71.21
2019-05-22T15:03:40.630Z,71.12
2019-05-22T15:06:44.320Z,71.25
2019-05-22T15:09:47.913Z,71.54
2019-05-22T15:12:51.701Z,71.75
2019-05-22T15:15:55.424Z,70.84
2019-05-22T15:18:59.015Z,69.67
2019-05-22T15:22:02.667Z,69.45
2019-05-22T15:25:10.851Z,69.49
2019-05-22T15:28:14.413Z,69.32
2019-05-22T15:31:18.047Z,69.26
2019-05-22T15:34:24.924Z,68.47
2019-05-22T15:44:45.484Z,68.28
2019-05-22T15:48:02.398Z,68.05
2019-05-22T15:52:44.261Z,67.89
2019-05-22T15:54:23.856Z,67.95
2019-05-22T15:57:25.775Z,67.59
2019-05-22T16:00:35.750Z,67.96
2019-05-22T16:03:42.741Z,68.46
2019-05-22T16:06:56.097Z,69.95
2019-05-22T16:09:59.981Z,70.60
2019-05-22T16:13:06.364Z,69.86
2019-05-22T16:16:11.961Z,69.70
2019-05-22T16:19:16.176Z,70.44
2019-05-22T16:22:22.880Z,69.03
2019-05-22T16:25:27.591Z,69.17
2019-05-22T16:28:36.055Z,68.69
2019-05-22T16:31:49.942Z,69.14
2019-05-22T16:34:55.077Z,68.58
2019-05-22T16:37:58.647Z,68.91
2019-05-22T16:41:02.331Z,68.15
2019-05-22T16:44:06.306Z,68.24
2019-05-22T16:47:10.966Z,68.23
2019-05-22T16:50:18.498Z,68.79
2019-05-22T16:53:24.665Z,68.22
2019-05-22T16:56:29.057Z,67.64
2019-05-22T16:59:36.713Z,67.98
2019-05-22T17:02:40.638Z,67.90
2019-05-22T17:05:44.674Z,67.67
2019-05-22T17:08:49.901Z,67.75
2019-05-22T17:11:54.021Z,67.47
2019-05-22T17:14:57.636Z,67.60
2019-05-22T17:18:01.297Z,67.59
2019-05-22T17:21:06.351Z,67.55
2019-05-22T17:24:13.125Z,67.16
2019-05-22T17:27:17.698Z,67.46
2019-05-22T17:30:22.978Z,67.45
2019-05-22T17:33:27.318Z,66.80
2019-05-22T17:36:31.863Z,66.20
2019-05-22T17:39:38.253Z,65.50
2019-05-22T17:42:42.636Z,65.33
2019-05-22T17:45:46.877Z,64.89
2019-05-22T17:48:52.006Z,65.28
2019-05-22T17:51:55.884Z,64.96
2019-05-22T17:55:01.615Z,64.71
2019-05-22T17:58:06.591Z,64.50
2019-05-22T18:01:11.335Z,64.07
2019-05-22T18:04:15.112Z,64.37
2019-05-22T18:07:22.478Z,63.61
2019-05-22T18:10:26.847Z,63.78
2019-05-22T18:13:31.126Z,63.65
2019-05-22T18:16:35.170Z,63.83
2019-05-22T18:19:38.954Z,63.84
2019-05-22T18:22:42.688Z,63.81
2019-05-22T18:25:48.179Z,64.25
2019-05-22T18:28:51.837Z,64.08
2019-05-22T18:31:55.921Z,64.35
2019-05-22T18:34:59.639Z,64.48
2019-05-22T18:38:04.780Z,64.70
2019-05-22T18:41:08.749Z,64.84
2019-05-22T18:44:14.146Z,65.46
2019-05-22T18:47:21.583Z,65.54
2019-05-22T18:50:24.914Z,65.51
2019-05-22T18:53:29.516Z,66.13
2019-05-22T18:56:34.787Z,65.94
2019-05-22T18:59:38.370Z,65.77
2019-05-22T19:02:42.310Z,64.80
2019-05-22T19:05:48.737Z,64.71
2019-05-22T19:08:58.995Z,65.69
2019-05-22T19:12:07.270Z,65.64
2019-05-22T19:15:13.289Z,65.89
2019-05-22T19:18:16.974Z,66.50
2019-05-22T19:21:20.503Z,66.62
2019-05-22T19:24:24.086Z,66.72
2019-05-22T19:27:27.654Z,66.58
2019-05-22T19:30:31.298Z,66.96
2019-05-22T19:33:36.583Z,67.13
2019-05-22T19:36:40.245Z,67.53
2019-05-22T19:39:43.832Z,67.70
2019-05-22T19:42:47.643Z,68.15
2019-05-22T19:45:51.659Z,68.34
2019-05-22T19:48:55.813Z,68.70
2019-05-22T19:51:59.718Z,68.51
2019-05-22T19:55:06.968Z,68.58
2019-05-22T19:58:10.781Z,69.00
2019-05-22T20:01:14.399Z,68.61
2019-05-22T20:04:18.326Z,68.93
2019-05-22T20:07:22.359Z,69.19
2019-05-22T20:10:29.275Z,68.98
2019-05-22T20:13:33.491Z,69.29
2019-05-22T20:16:39.559Z,69.32
2019-05-22T20:19:43.802Z,68.99
2019-05-22T20:22:53.424Z,69.12
2019-05-22T20:25:57.102Z,69.21
2019-05-22T20:29:01.546Z,69.29
2019-05-22T20:32:06.585Z,69.27
2019-05-22T20:35:11.358Z,69.15
2019-05-22T20:38:17.053Z,69.17
2019-05-22T20:41:21.301Z,69.18
2019-05-22T20:44:25.201Z,68.92
2019-05-22T20:47:31.892Z,69.24
2019-05-22T20:50:40.489Z,69.11
2019-05-22T20:53:54.118Z,69.26
2019-05-22T20:56:55.210Z,69.34
2019-05-22T21:00:02.271Z,69.37
2019-05-22T21:03:06.284Z,69.78
2019-05-22T21:06:14.399Z,69.75
2019-05-22T21:09:19.777Z,69.85
2019-05-22T21:12:25.668Z,69.92
2019-05-22T21:15:31.289Z,70.02
2019-05-22T21:18:38.451Z,69.93
2019-05-22T21:21:42.379Z,70.17
2019-05-22T21:24:46.299Z,70.34
2019-05-22T21:27:50.718Z,70.65
2019-05-22T21:30:56.861Z,70.55
2019-05-22T21:34:00.521Z,70.82
2019-05-22T21:37:05.560Z,71.00
2019-05-22T21:40:09.535Z,70.89
2019-05-22T21:43:15.344Z,71.37
2019-05-22T21:46:25.666Z,71.52
2019-05-22T21:49:29.762Z,71.58
2019-05-22T21:52:36.149Z,71.38
2019-05-22T21:55:46.999Z,71.21
2019-05-22T21:58:51.172Z,71.18
2019-05-22T22:02:02.804Z,71.02
2019-05-22T22:05:11.237Z,70.90
2019-05-22T22:08:15.333Z,71.48
2019-05-22T22:11:21.801Z,71.56
2019-05-22T22:14:26.123Z,71.62
2019-05-22T22:17:31.116Z,71.61
2019-05-22T22:20:35.153Z,71.83
2019-05-22T22:23:40.166Z,72.12
2019-05-22T22:26:51.936Z,72.38
2019-05-22T22:29:57.218Z,72.41
2019-05-22T22:33:10.551Z,72.61
2019-05-22T22:36:17.302Z,72.87
2019-05-22T22:39:21.672Z,72.75
2019-05-22T22:42:29.248Z,73.06
2019-05-22T22:45:42.189Z,73.21
2019-05-22T22:48:48.418Z,73.24
2019-05-22T22:51:53.222Z,73.38
2019-05-22T22:54:58.464Z,73.60
2019-05-22T22:58:16.527Z,73.68
2019-05-22T23:01:18.374Z,73.92
2019-05-22T23:04:24.486Z,74.03
2019-05-22T23:07:30.465Z,74.45
2019-05-22T23:10:34.458Z,74.86
2019-05-22T23:13:38.429Z,75.27
2019-05-22T23:16:43.750Z,75.35
2019-05-22T23:19:47.245Z,75.51
2019-05-22T23:22:49.676Z,75.96
2019-05-22T23:25:53.576Z,76.27
2019-05-22T23:28:59.115Z,76.78
2019-05-22T23:32:05.332Z,77.05
2019-05-22T23:35:11.129Z,77.30
2019-05-22T23:38:15.486Z,77.75
2019-05-22T23:41:20.275Z,78.00
2019-05-22T23:44:25.243Z,78.40
2019-05-22T23:47:30.475Z,78.97
2019-05-22T23:50:36.795Z,79.29
2019-05-22T23:53:42.221Z,79.81
2019-05-22T23:56:45.937Z,80.17
2019-05-22T23:59:52.346Z,80.03
